Time;durP1;ratioP1;P1;durP2;ratioP2;P2;SDS_P1;SDS_P2;PMS_P1;PMS_P2;Temp;Humidity;BMP_temperature;BMP_pressure;BME280_temperature;BME280_humidity;BME280_pressure;Samples;Min_cycle;Max_cycle;Signal;HPM_P1;HPM_P2
2023/02/26 00:01:45;;;;;;;5.60;2.20;;;;;;;3.71;69.34;98863.54;105096;1260;60529;-54
2023/02/26 00:04:13;;;;;;;6.40;2.40;;;;;;;3.69;69.32;98877.35;105300;1260;59759;-55
2023/02/26 00:06:51;;;;;;;8.00;5.30;;;;;;;3.74;69.28;98884.52;105023;1260;65336;-53
2023/02/26 00:09:21;;;;;;;5.90;2.10;;;;;;;3.79;69.08;98884.48;105419;1258;63069;-53
2023/02/26 00:11:50;;;;;;;6.90;2.30;;;;;;;3.79;69.15;98877.52;104914;1257;64651;-51
2023/02/26 00:14:22;;;;;;;7.10;1.80;;;;;;;3.76;69.23;98877.39;105040;1260;60154;-55
2023/02/26 00:17:13;;;;;;;9.70;5.90;;;;;;;3.73;69.22;98883.81;105085;1260;59634;-53
2023/02/26 00:19:46;;;;;;;7.60;2.20;;;;;;;3.70;69.19;98892.58;105052;1260;65232;-53
2023/02/26 00:22:15;;;;;;;6.60;2.20;;;;;;;3.65;69.28;98913.88;105199;1257;62646;-55
2023/02/26 00:24:43;;;;;;;8.90;5.70;;;;;;;3.60;69.36;98913.05;104983;1260;65205;-54
2023/02/26 00:27:13;;;;;;;6.50;2.20;;;;;;;3.63;69.25;98910.27;105055;1258;59824;-53
2023/02/26 00:29:42;;;;;;;6.40;2.00;;;;;;;3.68;69.11;98915.27;105476;1261;59592;-54
2023/02/26 00:32:10;;;;;;;7.80;4.70;;;;;;;3.72;68.94;98914.78;105144;1257;65121;-53
2023/02/26 00:34:41;;;;;;;5.40;1.80;;;;;;;3.73;68.90;98909.31;105266;1260;62415;-53
2023/02/26 00:37:32;;;;;;;5.40;1.70;;;;;;;3.71;68.99;98911.06;105249;1260;64838;-54
2023/02/26 00:40:33;;;;;;;5.40;1.60;;;;;;;3.67;69.06;98905.97;104872;1257;59650;-54
2023/02/26 00:43:05;;;;;;;6.10;2.00;;;;;;;3.62;69.01;98900.45;105050;1258;60222;-50
2023/02/26 00:45:35;;;;;;;5.70;2.20;;;;;;;3.59;69.05;98909.34;105166;1259;65106;-50
2023/02/26 00:48:27;;;;;;;5.60;1.80;;;;;;;3.56;69.03;98921.02;105132;1266;61624;-53
2023/02/26 00:51:01;;;;;;;6.70;2.00;;;;;;;3.51;68.99;98921.73;105050;1260;65041;-52
2023/02/26 00:53:38;;;;;;;5.80;2.50;;;;;;;3.52;68.85;98924.92;105031;1260;59790;-52
2023/02/26 00:56:08;;;;;;;4.50;1.20;;;;;;;3.56;68.70;98936.82;105073;1263;61015;-54
2023/02/26 00:58:37;;;;;;;8.30;5.50;;;;;;;3.58;68.69;98942.92;105079;1263;65231;-55
2023/02/26 01:01:05;;;;;;;5.60;2.10;;;;;;;3.59;68.78;98942.32;105082;1260;62792;-51
2023/02/26 01:03:35;;;;;;;7.40;2.20;;;;;;;3.58;68.67;98951.92;105199;1257;64906;-54
2023/02/26 01:06:04;;;;;;;5.40;2.20;;;;;;;3.53;68.67;98968.35;105810;1260;61383;-55
2023/02/26 01:08:46;;;;;;;10.00;6.20;;;;;;;3.50;68.72;98972.61;105165;1263;59685;-52
2023/02/26 01:11:16;;;;;;;6.70;2.40;;;;;;;3.46;68.73;98976.52;104942;1259;64036;-53
2023/02/26 01:13:45;;;;;;;5.20;1.90;;;;;;;3.49;68.76;98980.43;104911;1257;62510;-54
2023/02/26 01:16:22;;;;;;;7.60;2.70;;;;;;;3.57;68.54;98991.02;105011;1263;63749;-53
2023/02/26 01:19:08;;;;;;;8.10;2.40;;;;;;;3.60;68.40;98995.44;105258;1263;59668;-54
2023/02/26 01:21:37;;;;;;;8.00;2.80;;;;;;;3.63;68.36;98990.05;105159;1257;59858;-55
2023/02/26 01:24:07;;;;;;;6.30;2.00;;;;;;;3.62;68.41;98986.66;105196;1260;64412;-56
2023/02/26 01:26:36;;;;;;;8.90;6.00;;;;;;;3.60;68.39;98986.27;105126;1257;62492;-55
2023/02/26 01:29:05;;;;;;;10.20;2.90;;;;;;;3.61;68.27;98985.73;105136;1260;65128;-54
2023/02/26 01:31:37;;;;;;;5.70;2.10;;;;;;;3.59;68.13;98985.29;105152;1268;59807;-54
2023/02/26 01:34:18;;;;;;;6.80;1.80;;;;;;;3.56;68.13;98998.72;104952;1261;59659;-54
2023/02/26 01:36:53;;;;;;;5.50;2.20;;;;;;;3.50;68.15;99015.73;105123;1258;65373;-54
2023/02/26 01:39:35;;;;;;;6.30;1.50;;;;;;;3.51;68.12;99016.73;105043;1261;61777;-55
2023/02/26 01:42:20;;;;;;;6.40;1.90;;;;;;;3.58;67.93;99029.59;105201;1260;64045;-54
2023/02/26 01:45:02;;;;;;;7.70;3.00;;;;;;;3.66;67.84;99037.34;105334;1260;59752;-55
2023/02/26 01:47:54;;;;;;;5.90;2.10;;;;;;;3.71;67.79;99033.33;105226;1257;59647;-53
2023/02/26 01:50:28;;;;;;;6.80;2.60;;;;;;;3.72;67.75;99027.85;106723;1260;64319;-54
2023/02/26 01:52:58;;;;;;;11.60;7.10;;;;;;;3.71;67.66;99028.63;105366;1260;62831;-55
2023/02/26 01:55:26;;;;;;;8.10;2.70;;;;;;;3.69;67.42;99032.96;105308;1262;65578;-54
2023/02/26 01:57:56;;;;;;;8.20;2.80;;;;;;;3.64;67.39;99040.77;104953;1260;59571;-53
2023/02/26 02:00:24;;;;;;;9.60;3.20;;;;;;;3.58;67.56;99054.75;104961;1260;59653;-53
2023/02/26 02:02:53;;;;;;;12.80;7.90;;;;;;;3.53;67.65;99063.07;105008;1260;65330;-56
2023/02/26 02:05:34;;;;;;;8.00;2.70;;;;;;;3.50;67.69;99068.46;105057;1260;62446;-54
2023/02/26 02:08:04;;;;;;;7.20;2.50;;;;;;;3.55;67.53;99069.70;105200;1258;65054;-54
2023/02/26 02:10:32;;;;;;;11.00;3.40;;;;;;;3.61;67.42;99075.64;104674;1264;59693;-54
2023/02/26 02:13:39;;;;;;;7.20;2.90;;;;;;;3.67;67.29;99081.80;104942;1258;59746;-54
2023/02/26 02:16:19;;;;;;;9.00;3.70;;;;;;;3.69;67.12;99085.65;105031;1260;65427;-56
2023/02/26 02:19:13;;;;;;;6.70;2.80;;;;;;;3.68;67.12;99082.09;104901;1257;62430;-55
2023/02/26 02:22:24;;;;;;;9.70;4.40;;;;;;;3.62;67.03;99082.71;104906;1264;73700;-54
2023/02/26 02:25:26;;;;;;;8.90;3.00;;;;;;;3.56;67.12;99081.39;104734;1261;60344;-54
2023/02/26 02:28:05;;;;;;;6.60;2.80;;;;;;;3.51;67.17;99091.30;105209;1264;60636;-53
2023/02/26 02:30:58;;;;;;;6.50;2.30;;;;;;;3.48;67.26;99091.89;105246;1260;66360;-55
2023/02/26 02:33:30;;;;;;;8.00;2.50;;;;;;;3.46;67.21;99102.21;104823;1263;61761;-54
2023/02/26 02:36:02;;;;;;;5.90;1.90;;;;;;;3.52;67.14;99104.94;104970;1261;64008;-52
2023/02/26 02:38:33;;;;;;;7.10;3.00;;;;;;;3.61;66.99;99108.13;105026;1257;60565;-52
2023/02/26 02:41:10;;;;;;;4.20;2.10;;;;;;;3.66;66.76;99113.58;104894;1258;60495;-54
2023/02/26 02:43:40;;;;;;;7.80;5.10;;;;;;;3.69;66.68;99116.86;105506;1258;66015;-54
2023/02/26 02:46:15;;;;;;;3.70;1.30;;;;;;;3.67;66.69;99121.70;105075;1257;63198;-54
2023/02/26 02:49:07;;;;;;;;;;;;;;;3.65;66.69;99130.02;104945;1263;64735;-54
2023/02/26 02:51:43;;;;;;;5.10;2.00;;;;;;;3.60;66.73;99130.03;105407;1257;62707;-55
2023/02/26 02:54:15;;;;;;;5.50;2.00;;;;;;;3.54;66.79;99131.86;105226;1260;60502;-54
2023/02/26 02:57:00;;;;;;;5.40;1.80;;;;;;;3.49;66.85;99129.74;105086;1260;66119;-56
2023/02/26 02:59:35;;;;;;;6.10;1.80;;;;;;;3.45;66.95;99131.41;105036;1260;62451;-54
2023/02/26 03:02:21;;;;;;;5.70;2.00;;;;;;;3.48;66.92;99128.81;105106;1262;64765;-54
2023/02/26 03:04:50;;;;;;;6.50;2.50;;;;;;;3.54;66.72;99132.69;104974;1257;60618;-55
2023/02/26 03:07:18;;;;;;;8.80;5.40;;;;;;;3.61;66.61;99134.98;104853;1262;60470;-55
2023/02/26 03:09:51;;;;;;;5.30;1.80;;;;;;;3.64;66.61;99143.61;105090;1257;66829;-54
2023/02/26 03:12:20;;;;;;;6.10;2.30;;;;;;;3.64;66.61;99143.81;105135;1265;62539;-56
2023/02/26 03:14:54;;;;;;;5.00;1.80;;;;;;;3.63;66.62;99142.47;104742;1258;64999;-54
2023/02/26 03:17:39;;;;;;;7.40;4.30;;;;;;;3.64;66.65;99151.79;104963;1258;60470;-54
2023/02/26 03:20:15;;;;;;;4.40;1.50;;;;;;;3.62;66.52;99154.34;105415;1257;60466;-55
2023/02/26 03:23:18;;;;;;;4.20;1.10;;;;;;;3.61;66.45;99166.21;105115;1263;66216;-57
2023/02/26 03:26:10;;;;;;;4.10;2.10;;;;;;;3.57;66.44;99173.25;104837;1264;63045;-54
2023/02/26 03:28:51;;;;;;;5.00;1.70;;;;;;;3.52;66.54;99178.77;105125;1264;64672;-54
2023/02/26 03:31:23;;;;;;;5.70;1.30;;;;;;;3.49;66.52;99180.33;105027;1258;60492;-56
2023/02/26 03:34:01;;;;;;;7.40;2.20;;;;;;;3.50;66.54;99183.73;105127;1260;60487;-55
2023/02/26 03:36:34;;;;;;;8.60;3.90;;;;;;;3.58;66.43;99191.20;105222;1261;66077;-55
2023/02/26 03:39:18;;;;;;;5.50;2.70;;;;;;;3.65;66.29;99193.52;105139;1257;62536;-56
2023/02/26 03:41:53;;;;;;;5.40;2.90;;;;;;;3.70;66.20;99193.33;105160;1260;65277;-54
2023/02/26 03:44:36;;;;;;;5.40;1.70;;;;;;;3.71;66.23;99194.59;105168;1258;60351;-55
2023/02/26 03:47:06;;;;;;;5.80;2.80;;;;;;;3.70;66.24;99199.22;104799;1260;60462;-55
2023/02/26 03:49:39;;;;;;;8.70;4.90;;;;;;;3.69;66.23;99198.75;105485;1260;65989;-51
2023/02/26 03:52:07;;;;;;;6.10;2.10;;;;;;;3.67;66.20;99194.02;105001;1260;62852;-50
2023/02/26 03:55:18;;;;;;;5.40;1.70;;;;;;;3.62;66.09;99194.36;104967;1264;64986;-51
2023/02/26 03:58:03;;;;;;;5.00;2.40;;;;;;;3.57;66.21;99198.39;105531;1261;60641;-54
2023/02/26 04:00:38;;;;;;;5.60;2.00;;;;;;;3.51;66.25;99201.56;105236;1257;60580;-53
2023/02/26 04:03:15;;;;;;;4.20;1.20;;;;;;;3.48;66.31;99202.14;105270;1263;75634;-54
2023/02/26 04:05:46;;;;;;;4.50;1.60;;;;;;;3.52;66.14;99209.64;104990;1261;62589;-52
2023/02/26 04:08:15;;;;;;;4.50;1.30;;;;;;;3.56;66.02;99212.52;104854;1257;64234;-53
2023/02/26 04:11:05;;;;;;;6.90;4.00;;;;;;;3.57;66.02;99211.05;104968;1258;60405;-52
2023/02/26 04:13:34;;;;;;;4.40;1.70;;;;;;;3.58;66.18;99223.98;105101;1260;60451;-53
2023/02/26 04:16:04;;;;;;;6.90;2.30;;;;;;;3.56;66.13;99227.26;105495;1257;74754;-51
2023/02/26 04:18:33;;;;;;;5.90;1.70;;;;;;;3.48;66.35;99235.71;104979;1260;62449;-52
2023/02/26 04:21:02;;;;;;;6.40;2.40;;;;;;;3.44;66.41;99244.21;104983;1258;65883;-49
2023/02/26 04:23:30;;;;;;;5.60;1.80;;;;;;;3.41;66.49;99250.49;105185;1258;60534;-50
2023/02/26 04:25:59;;;;;;;6.40;2.50;;;;;;;3.38;66.48;99257.61;104984;1260;60454;-53
2023/02/26 04:28:29;;;;;;;8.20;2.20;;;;;;;3.34;66.52;99255.57;105220;1263;66234;-52
2023/02/26 04:30:58;;;;;;;6.00;2.20;;;;;;;3.36;66.50;99254.61;105385;1257;62624;-54
2023/02/26 04:33:27;;;;;;;4.80;1.70;;;;;;;3.35;66.59;99261.60;105265;1260;63803;-50
2023/02/26 04:35:56;;;;;;;5.40;1.40;;;;;;;3.42;66.55;99263.77;105203;1257;60568;-53
2023/02/26 04:38:25;;;;;;;4.50;1.60;;;;;;;3.53;66.33;99272.02;105110;1267;60974;-54
2023/02/26 04:40:53;;;;;;;7.60;2.10;;;;;;;3.61;66.05;99280.30;105121;1263;66107;-53
2023/02/26 04:43:22;;;;;;;7.40;4.70;;;;;;;3.68;65.96;99293.20;105671;1258;62683;-52
2023/02/26 04:45:58;;;;;;;4.50;1.20;;;;;;;3.69;65.85;99297.06;105280;1257;63843;-54
2023/02/26 04:48:26;;;;;;;6.50;2.80;;;;;;;3.67;65.83;99293.92;105317;1257;60637;-53
2023/02/26 04:50:55;;;;;;;6.20;2.30;;;;;;;3.64;65.80;99301.42;105100;1260;60536;-55
2023/02/26 04:53:23;;;;;;;8.40;4.60;;;;;;;3.59;65.81;99305.22;105450;1257;66085;-54
2023/02/26 04:55:52;;;;;;;6.90;2.50;;;;;;;3.56;65.88;99309.80;105119;1260;61722;-55
2023/02/26 04:58:22;;;;;;;5.20;1.90;;;;;;;3.51;65.97;99312.02;105230;1261;63707;-54
2023/02/26 05:00:52;;;;;;;5.40;2.30;;;;;;;3.46;65.99;99312.56;105910;1260;60405;-52
2023/02/26 05:03:20;;;;;;;9.30;5.10;;;;;;;3.40;66.14;99315.15;105273;1256;60492;-53
2023/02/26 05:05:49;;;;;;;5.20;2.20;;;;;;;3.40;66.12;99308.58;105153;1258;66247;-53
2023/02/26 05:08:18;;;;;;;5.10;1.70;;;;;;;3.45;66.07;99306.21;105332;1257;63340;-54
2023/02/26 05:10:49;;;;;;;5.70;2.30;;;;;;;3.50;66.16;99312.22;105816;1257;65035;-53
2023/02/26 05:13:18;;;;;;;6.30;2.70;;;;;;;3.57;66.04;99317.17;105712;1260;61598;-53
2023/02/26 05:15:47;;;;;;;12.30;6.50;;;;;;;3.59;66.09;99322.25;105491;1257;60518;-55
2023/02/26 05:18:17;;;;;;;7.20;2.80;;;;;;;3.59;66.21;99333.14;105413;1257;66278;-56
2023/02/26 05:20:54;;;;;;;6.30;2.80;;;;;;;3.59;66.06;99337.17;105241;1257;62370;-53
2023/02/26 05:23:22;;;;;;;8.00;3.00;;;;;;;3.59;66.06;99345.80;105146;1257;65032;-55
2023/02/26 05:25:54;;;;;;;9.30;6.10;;;;;;;3.58;66.12;99352.64;105324;1257;61650;-53
2023/02/26 05:28:26;;;;;;;7.70;2.70;;;;;;;3.57;66.05;99353.73;105247;1257;59358;-54
2023/02/26 05:30:56;;;;;;;7.30;2.20;;;;;;;3.53;66.10;99353.81;105392;1260;66102;-53
2023/02/26 05:33:25;;;;;;;4.90;2.00;;;;;;;3.49;66.13;99357.55;105042;1260;61466;-54
2023/02/26 05:35:53;;;;;;;6.40;2.10;;;;;;;3.48;66.22;99363.52;105566;1257;63913;-54
2023/02/26 05:38:22;;;;;;;7.90;2.30;;;;;;;3.57;66.12;99369.52;105424;1261;60421;-54
2023/02/26 05:40:55;;;;;;;7.60;2.80;;;;;;;3.66;65.97;99379.17;105308;1257;60437;-54
2023/02/26 05:43:24;;;;;;;9.30;2.70;;;;;;;3.74;65.87;99382.08;105534;1257;64891;-54
2023/02/26 05:45:52;;;;;;;9.60;5.10;;;;;;;3.78;65.83;99375.25;105212;1258;62387;-53
2023/02/26 05:48:22;;;;;;;5.30;1.50;;;;;;;3.80;65.82;99378.42;105272;1260;65022;-53
2023/02/26 05:50:51;;;;;;;5.70;2.40;;;;;;;3.80;65.74;99386.92;105313;1257;61732;-54
2023/02/26 05:53:19;;;;;;;9.00;5.70;;;;;;;3.79;65.70;99394.77;105279;1260;61027;-53
2023/02/26 05:55:47;;;;;;;5.90;2.30;;;;;;;3.80;65.79;99396.23;105285;1259;66018;-53
2023/02/26 05:58:19;;;;;;;6.80;2.00;;;;;;;3.75;65.79;99399.36;105182;1260;62428;-53
2023/02/26 06:00:49;;;;;;;11.00;6.20;;;;;;;3.71;65.93;99402.80;105352;1260;64954;-54
2023/02/26 06:03:18;;;;;;;5.10;2.20;;;;;;;3.71;65.81;99408.34;105172;1257;60541;-54
2023/02/26 06:05:47;;;;;;;6.40;2.30;;;;;;;3.74;65.74;99410.52;105381;1257;60556;-54
2023/02/26 06:08:16;;;;;;;8.10;2.10;;;;;;;3.81;65.64;99419.63;105205;1260;66650;-53
2023/02/26 06:10:45;;;;;;;6.50;2.00;;;;;;;3.88;65.52;99423.11;105261;1257;62626;-54
2023/02/26 06:13:13;;;;;;;5.10;2.40;;;;;;;3.88;65.53;99423.98;105460;1258;63738;-54
2023/02/26 06:15:41;;;;;;;8.50;5.40;;;;;;;3.87;65.76;99424.95;105399;1257;60338;-54
2023/02/26 06:18:10;;;;;;;6.40;2.30;;;;;;;3.86;65.72;99430.71;105583;1258;60456;-54
2023/02/26 06:20:38;;;;;;;7.60;2.70;;;;;;;3.84;65.75;99437.59;105584;1257;66195;-55
2023/02/26 06:23:07;;;;;;;6.60;3.00;;;;;;;3.80;65.72;99441.16;105428;1260;61844;-53
2023/02/26 06:25:35;;;;;;;7.80;2.90;;;;;;;3.80;65.91;99447.77;105202;1257;65004;-53
2023/02/26 06:28:05;;;;;;;7.50;2.40;;;;;;;3.79;65.77;99455.48;105527;1261;60581;-53
2023/02/26 06:30:33;;;;;;;7.60;2.80;;;;;;;3.77;65.74;99460.48;105393;1257;60566;-53
2023/02/26 06:33:02;;;;;;;8.20;5.30;;;;;;;3.75;65.78;99460.27;105558;1260;66076;-53
2023/02/26 06:35:30;;;;;;;4.70;2.30;;;;;;;3.78;65.73;99464.23;105277;1259;62173;-53
2023/02/26 06:37:59;;;;;;;6.40;2.00;;;;;;;3.87;65.50;99474.05;105198;1257;73647;-52
2023/02/26 06:40:27;;;;;;;6.30;2.70;;;;;;;3.93;65.43;99478.16;105336;1260;60525;-53
2023/02/26 06:42:56;;;;;;;9.80;5.40;;;;;;;3.97;65.36;99485.50;105270;1257;64032;-54
2023/02/26 06:45:24;;;;;;;4.50;1.80;;;;;;;3.98;65.43;99490.31;105238;1260;74933;-56
2023/02/26 06:47:53;;;;;;;7.80;5.00;;;;;;;3.97;65.38;99495.06;105036;1257;62513;-53
2023/02/26 06:50:22;;;;;;;8.20;3.30;;;;;;;3.97;65.42;99501.84;105044;1257;65100;-52
2023/02/26 06:52:51;;;;;;;6.40;2.40;;;;;;;3.96;65.41;99508.11;105001;1257;60421;-54
2023/02/26 06:55:25;;;;;;;6.20;2.30;;;;;;;3.96;65.52;99512.69;105049;1257;61137;-53
2023/02/26 06:57:54;;;;;;;5.60;2.30;;;;;;;3.96;65.59;99515.09;105017;1257;66183;-53
2023/02/26 07:00:23;;;;;;;8.00;5.10;;;;;;;3.95;65.66;99524.34;104863;1257;71323;-52
2023/02/26 07:02:52;;;;;;;6.30;1.70;;;;;;;3.94;65.63;99528.59;105028;1260;64033;-52
2023/02/26 07:05:25;;;;;;;4.30;1.50;;;;;;;4.02;65.46;99531.38;104992;1261;60435;-51
2023/02/26 07:07:55;;;;;;;5.90;1.70;;;;;;;4.12;65.32;99528.45;105189;1258;60526;-51
2023/02/26 07:10:24;;;;;;;9.60;5.30;;;;;;;4.20;65.13;99535.52;105152;1260;74701;-52
2023/02/26 07:12:52;;;;;;;7.40;3.30;;;;;;;4.25;65.11;99536.73;105062;1257;71886;-53
2023/02/26 07:15:20;;;;;;;7.90;5.40;;;;;;;4.30;65.11;99542.15;105054;1258;73630;-52
2023/02/26 07:17:52;;;;;;;6.30;2.10;;;;;;;4.33;64.80;99546.82;105102;1257;60498;-54
2023/02/26 07:20:21;;;;;;;6.50;2.30;;;;;;;4.33;64.87;99543.73;104908;1261;62237;-53
2023/02/26 07:22:50;;;;;;;7.10;2.80;;;;;;;4.32;64.62;99542.75;105087;1256;66175;-54
2023/02/26 07:25:18;;;;;;;7.00;2.40;;;;;;;4.31;64.68;99541.91;104941;1257;71512;-53
2023/02/26 07:27:47;;;;;;;9.10;5.50;;;;;;;4.30;64.79;99539.73;105321;1260;73693;-54
2023/02/26 07:30:15;;;;;;;7.10;2.60;;;;;;;4.32;64.75;99541.86;105159;1257;62022;-52
2023/02/26 07:32:44;;;;;;;9.40;6.40;;;;;;;4.40;64.42;99548.63;105103;1256;61347;-54
2023/02/26 07:35:12;;;;;;;9.00;6.00;;;;;;;4.49;64.25;99543.50;104901;1260;74895;-53
2023/02/26 07:37:41;;;;;;;5.10;2.80;;;;;;;4.56;64.06;99549.07;105167;1256;71573;-54
2023/02/26 07:40:10;;;;;;;6.10;2.40;;;;;;;4.58;63.89;99539.36;105329;1256;73570;-53
2023/02/26 07:42:40;;;;;;;7.40;2.40;;;;;;;4.59;64.02;99535.85;104885;1257;60748;-53
2023/02/26 07:45:09;;;;;;;11.60;6.40;;;;;;;4.60;64.07;99542.19;104986;1257;60993;-53
2023/02/26 07:47:38;;;;;;;11.10;7.30;;;;;;;4.63;63.86;99543.95;105208;1257;66276;-52
2023/02/26 07:50:07;;;;;;;7.40;3.40;;;;;;;4.64;63.69;99545.43;105461;1257;62207;-54
2023/02/26 07:52:35;;;;;;;10.50;6.70;;;;;;;4.61;63.57;99552.77;104930;1257;76303;-54
2023/02/26 07:55:07;;;;;;;6.80;2.50;;;;;;;4.58;63.64;99557.09;105074;1260;61181;-53
2023/02/26 07:57:35;;;;;;;5.50;2.40;;;;;;;4.65;63.63;99557.70;105247;1260;61296;-54
2023/02/26 08:00:05;;;;;;;5.40;2.30;;;;;;;4.75;63.62;99567.06;105225;1257;74788;-54
2023/02/26 08:02:40;;;;;;;6.10;2.50;;;;;;;4.85;63.45;99569.30;105309;1257;62587;-54
2023/02/26 08:05:08;;;;;;;11.10;6.80;;;;;;;4.93;63.48;99571.77;105365;1257;72569;-53
2023/02/26 08:07:36;;;;;;;8.30;3.70;;;;;;;4.98;63.39;99572.45;104937;1257;61491;-54
2023/02/26 08:10:07;;;;;;;10.40;7.10;;;;;;;5.00;63.11;99571.62;105326;1257;61325;-54
2023/02/26 08:12:35;;;;;;;8.10;3.20;;;;;;;5.00;63.03;99562.34;105156;1260;75063;-54
2023/02/26 08:15:13;;;;;;;10.90;7.40;;;;;;;5.00;62.77;99563.98;104898;1260;61648;-56
2023/02/26 08:17:42;;;;;;;10.80;3.30;;;;;;;4.96;62.59;99562.33;105113;1257;73633;-55
2023/02/26 08:20:13;;;;;;;12.50;7.50;;;;;;;4.95;62.93;99569.73;104879;1261;60421;-54
2023/02/26 08:22:41;;;;;;;7.30;3.10;;;;;;;4.95;62.75;99577.36;105350;1257;61297;-53
2023/02/26 08:25:09;;;;;;;7.00;3.70;;;;;;;4.92;62.44;99575.79;104898;1257;74966;-51
2023/02/26 08:27:38;;;;;;;11.20;6.80;;;;;;;4.99;62.51;99576.71;105129;1257;71457;-52
2023/02/26 08:30:10;;;;;;;11.60;8.00;;;;;;;5.14;62.69;99585.63;105364;1257;73378;-51
2023/02/26 08:32:41;;;;;;;11.30;7.30;;;;;;;5.24;62.38;99594.95;105142;1257;60451;-49
2023/02/26 08:35:10;;;;;;;6.20;2.60;;;;;;;5.29;62.16;99597.39;105030;1256;61162;-51
2023/02/26 08:37:39;;;;;;;11.80;7.50;;;;;;;5.33;61.91;99603.35;104983;1260;75629;-49
2023/02/26 08:40:08;;;;;;;6.70;3.10;;;;;;;5.36;61.65;99605.95;105301;1257;71337;-51
2023/02/26 08:42:36;;;;;;;11.10;7.20;;;;;;;5.38;61.85;99610.11;104851;1257;74139;-53
2023/02/26 08:45:05;;;;;;;12.10;7.50;;;;;;;5.43;61.53;99620.26;104888;1257;60539;-51
2023/02/26 08:47:33;;;;;;;7.30;3.50;;;;;;;5.45;61.31;99620.86;105079;1257;61296;-51
2023/02/26 08:50:07;;;;;;;10.90;7.70;;;;;;;5.46;61.31;99625.63;105213;1257;75065;-54
2023/02/26 08:52:35;;;;;;;8.50;2.70;;;;;;;5.48;61.36;99624.21;105003;1258;70168;-54
2023/02/26 08:55:06;;;;;;;7.10;2.60;;;;;;;5.57;60.89;99631.74;105493;1260;73623;-51
2023/02/26 08:57:35;;;;;;;6.70;3.00;;;;;;;5.65;60.56;99627.70;104956;1257;60437;-48
2023/02/26 09:00:05;;;;;;;10.90;7.40;;;;;;;5.69;60.38;99628.98;104913;1260;61190;-50
2023/02/26 09:02:37;;;;;;;10.90;7.50;;;;;;;5.72;60.59;99631.58;105081;1257;74568;-55
2023/02/26 09:05:08;;;;;;;11.80;7.60;;;;;;;5.79;60.57;99629.71;105136;1257;71535;-54
2023/02/26 09:07:37;;;;;;;10.00;7.40;;;;;;;5.85;60.35;99629.25;104927;1260;73442;-55
2023/02/26 09:10:07;;;;;;;8.70;3.10;;;;;;;5.89;60.23;99629.79;104877;1260;60536;-56
2023/02/26 09:12:37;;;;;;;9.90;6.70;;;;;;;5.91;59.63;99638.02;104745;1260;61501;-55
2023/02/26 09:15:07;;;;;;;10.10;6.80;;;;;;;5.86;59.13;99641.70;105134;1256;74529;-55
2023/02/26 09:17:36;;;;;;;10.80;7.10;;;;;;;5.81;59.29;99638.27;105072;1257;71251;-54
2023/02/26 09:20:05;;;;;;;9.10;6.50;;;;;;;5.79;59.59;99644.70;104779;1260;73865;-54
2023/02/26 09:22:37;;;;;;;10.30;6.50;;;;;;;5.79;59.52;99648.29;104777;1256;60555;-54
2023/02/26 09:25:05;;;;;;;7.00;2.50;;;;;;;5.79;59.76;99654.24;104954;1259;61225;-57
2023/02/26 09:27:35;;;;;;;9.10;6.30;;;;;;;5.88;59.48;99665.43;104884;1256;74965;-54
2023/02/26 09:30:04;;;;;;;11.40;6.80;;;;;;;5.98;58.86;99669.78;105290;1257;71291;-55
2023/02/26 09:32:33;;;;;;;11.50;7.10;;;;;;;6.00;58.76;99673.18;104801;1261;72916;-56
2023/02/26 09:35:04;;;;;;;9.60;6.40;;;;;;;5.98;58.91;99677.84;104819;1259;60406;-55
2023/02/26 09:37:34;;;;;;;10.90;6.90;;;;;;;5.99;58.90;99684.34;106272;1260;61321;-55
2023/02/26 09:40:04;;;;;;;8.90;6.60;;;;;;;6.01;58.93;99689.04;104646;1257;73322;-58
2023/02/26 09:42:41;;;;;;;9.40;6.40;;;;;;;6.03;58.40;99690.46;104986;1257;71188;-55
2023/02/26 09:45:25;;;;;;;9.20;2.90;;;;;;;6.03;58.80;99686.84;104873;1258;64992;-56
2023/02/26 09:47:54;;;;;;;7.70;2.60;;;;;;;6.04;58.80;99686.45;104929;1259;60523;-55
2023/02/26 09:50:41;;;;;;;6.90;2.60;;;;;;;6.06;58.69;99689.77;107272;1256;60542;-55
2023/02/26 09:53:20;;;;;;;10.50;7.30;;;;;;;6.11;58.47;99688.48;105192;1257;66319;-54
2023/02/26 09:55:49;;;;;;;12.50;6.70;;;;;;;6.20;58.69;99686.50;105002;1257;62451;-54
2023/02/26 09:58:25;;;;;;;7.80;2.80;;;;;;;6.28;58.74;99686.88;104905;1257;73636;-54
2023/02/26 10:00:56;;;;;;;7.10;3.30;;;;;;;6.39;58.33;99686.86;104986;1257;60705;-53
2023/02/26 10:03:43;;;;;;;10.10;6.10;;;;;;;6.43;57.38;99703.62;105111;1257;60312;-55
2023/02/26 10:07:01;;;;;;;9.80;6.30;;;;;;;6.39;56.98;99700.58;104889;1257;66222;-55
2023/02/26 10:09:57;;;;;;;10.10;6.10;;;;;;;6.38;57.10;99697.19;104629;1257;62621;-54
2023/02/26 10:12:27;;;;;;;8.60;5.50;;;;;;;6.39;57.10;99694.32;105047;1257;64795;-55
2023/02/26 10:14:58;;;;;;;9.10;6.10;;;;;;;6.41;56.81;99697.83;104895;1257;60958;-56
2023/02/26 10:18:01;;;;;;;8.00;5.50;;;;;;;6.37;56.24;99697.41;104926;1257;62886;-55
2023/02/26 10:20:35;;;;;;;9.00;5.50;;;;;;;6.32;56.37;99698.77;104762;1260;236751;-57
2023/02/26 10:34:55;;;;;;;8.70;5.30;;;;;;;6.70;56.05;99703.95;102566;1285;605207;-56
2023/02/26 10:37:47;;;;;;;9.00;5.70;;;;;;;7.20;54.98;99702.54;104281;1269;100627;-55
2023/02/26 10:40:21;;;;;;;8.50;5.40;;;;;;;7.23;55.01;99705.44;104998;1267;61771;-55
2023/02/26 10:42:57;;;;;;;11.50;6.60;;;;;;;7.24;55.07;99708.04;104273;1269;65121;-56
2023/02/26 10:45:51;;;;;;;9.70;6.80;;;;;;;7.26;55.51;99711.34;104984;1253;62415;-56
2023/02/26 10:48:38;;;;;;;10.80;6.80;;;;;;;7.33;55.46;99715.16;105017;1256;65071;-55
2023/02/26 10:51:17;;;;;;;10.20;6.70;;;;;;;7.38;55.22;99718.27;104979;1262;59188;-56
2023/02/26 10:53:51;;;;;;;10.40;6.80;;;;;;;7.42;55.37;99716.71;105087;1256;59346;-53
2023/02/26 10:56:25;;;;;;;10.30;6.40;;;;;;;7.50;54.98;99721.84;105042;1255;63575;-54
2023/02/26 10:58:53;;;;;;;9.90;5.90;;;;;;;7.54;54.23;99722.41;105092;1256;62636;-56
2023/02/26 11:01:24;;;;;;;10.60;6.60;;;;;;;7.52;54.15;99724.15;105056;1258;73322;-54
2023/02/26 11:04:02;;;;;;;9.10;6.60;;;;;;;7.50;53.84;99728.02;105092;1253;59686;-55
2023/02/26 11:06:34;;;;;;;8.90;6.40;;;;;;;7.45;53.81;99732.55;105344;1254;59969;-56
2023/02/26 11:09:02;;;;;;;10.60;6.40;;;;;;;7.44;54.25;99735.43;105010;1256;65421;-56
2023/02/26 11:11:50;;;;;;;11.40;6.90;;;;;;;7.46;54.35;99735.46;104916;1256;62520;-56
2023/02/26 11:14:19;;;;;;;9.80;7.00;;;;;;;7.52;54.13;99739.70;105019;1254;64767;-55
2023/02/26 11:16:52;;;;;;;10.50;6.90;;;;;;;7.51;53.85;99737.03;105084;1259;59597;-54
2023/02/26 11:19:50;;;;;;;10.90;6.20;;;;;;;7.46;53.70;99737.24;104940;1258;61027;-55
2023/02/26 11:22:19;;;;;;;10.40;6.30;;;;;;;7.43;53.44;99743.71;105012;1259;64403;-55
2023/02/26 11:24:48;;;;;;;10.10;6.60;;;;;;;7.38;53.41;99747.58;105031;1256;62345;-56
2023/02/26 11:27:23;;;;;;;9.90;6.60;;;;;;;7.35;53.64;99756.17;105383;1256;65094;-56
2023/02/26 11:29:59;;;;;;;10.10;6.20;;;;;;;7.35;53.80;99759.86;105033;1258;59641;-56
2023/02/26 11:32:31;;;;;;;;;;;;;;;7.37;53.90;99763.39;105101;1254;59762;-56
2023/02/26 11:35:06;;;;;;;5.70;2.70;;;;;;;7.38;53.90;99770.26;104974;1258;65233;-55
2023/02/26 11:37:37;;;;;;;10.80;6.80;;;;;;;7.38;53.88;99772.93;105188;1258;61370;-55
2023/02/26 11:40:22;;;;;;;9.40;7.00;;;;;;;7.40;53.85;99772.20;104910;1258;73907;-55
2023/02/26 11:42:57;;;;;;;8.80;3.30;;;;;;;7.48;53.78;99775.48;105030;1257;59518;-55
2023/02/26 11:45:25;;;;;;;10.60;6.90;;;;;;;7.47;53.60;99779.70;105007;1253;59916;-55
2023/02/26 11:48:01;;;;;;;9.10;6.00;;;;;;;7.48;53.29;99784.17;105129;1256;65193;-54
2023/02/26 11:50:30;;;;;;;11.60;7.60;;;;;;;7.47;53.49;99785.98;105100;1258;61418;-55
2023/02/26 11:53:04;;;;;;;10.70;8.00;;;;;;;7.50;53.49;99787.86;104943;1256;65243;-52
2023/02/26 11:55:37;;;;;;;10.50;6.90;;;;;;;7.54;53.05;99784.72;105488;1253;59754;-54
2023/02/26 11:58:17;;;;;;;10.50;7.50;;;;;;;7.58;53.30;99785.79;105387;1258;59859;-55
2023/02/26 12:00:46;;;;;;;11.30;7.30;;;;;;;7.67;53.51;99787.58;105668;1256;65366;-54
2023/02/26 12:03:20;;;;;;;12.40;8.00;;;;;;;7.75;53.29;99791.54;105158;1254;62753;-54
2023/02/26 12:05:52;;;;;;;10.50;7.40;;;;;;;7.81;53.18;99794.53;105285;1256;64695;-54
2023/02/26 12:08:27;;;;;;;10.90;7.30;;;;;;;7.87;53.12;99797.08;105120;1255;59651;-54
2023/02/26 12:11:06;;;;;;;9.40;6.90;;;;;;;7.87;53.11;99799.34;105448;1258;59873;-53
2023/02/26 12:13:41;;;;;;;10.70;7.30;;;;;;;7.87;53.15;99796.36;105134;1258;65237;-55